Terminal Aerodrome Forecast
Issued by NWS Northern Indiana

Home | Current Version | Previous Version | Text Only | Print | Product List | Glossary Off
Versions: 1 2 3 4 5 6 7 8 9 10 11 12

000
FTUS43 KIWX 211120
TAFFWA
TAF
KFWA 211120Z 2112/2212 22016G23KT P6SM BKN250 WS020/23050KT
     FM211400 23018G26KT P6SM BKN200
     FM212130 27013G21KT P6SM -SHRA BKN050 OVC150
     FM220100 30009KT P6SM BKN040=

USA.gov is the U.S. government's official web portal to all federal, state and local government web resources and services.